Time;durP1;ratioP1;P1;durP2;ratioP2;P2;SDS_P1;SDS_P2;PMS_P1;PMS_P2;Temp;Humidity;BMP_temperature;BMP_pressure;BME280_temperature;BME280_humidity;BME280_pressure;Samples;Min_cycle;Max_cycle;Signal;HPM_P1;HPM_P2
2022/08/27 00:00:21;;;;;;;2.33;2.13;;;25.40;99.90;;;;;;5048324;28;20194;-41
2022/08/27 00:02:48;;;;;;;1.90;1.80;;;25.40;99.90;;;;;;5051770;28;20200;-43
2022/08/27 00:05:17;;;;;;;1.98;1.88;;;25.40;99.90;;;;;;5049597;28;20616;-44
2022/08/27 00:07:46;;;;;;;2.13;2.00;;;25.40;99.90;;;;;;5048721;28;20213;-45
2022/08/27 00:10:23;;;;;;;2.00;1.90;;;25.40;99.90;;;;;;5051047;28;20221;-44
2022/08/27 00:12:50;;;;;;;2.40;2.20;;;25.40;99.90;;;;;;5047224;28;20208;-40
2022/08/27 00:15:18;;;;;;;2.05;1.90;;;25.30;99.90;;;;;;5049809;28;20669;-42
2022/08/27 00:17:46;;;;;;;1.60;1.50;;;25.30;99.90;;;;;;5046845;28;20673;-41
2022/08/27 00:20:15;;;;;;;1.92;1.70;;;25.30;99.90;;;;;;5045257;28;20251;-40
2022/08/27 00:22:43;;;;;;;2.60;1.98;;;25.30;99.90;;;;;;5047685;28;20222;-41
2022/08/27 00:25:12;;;;;;;2.08;1.98;;;25.30;99.90;;;;;;5044517;28;20202;-41
2022/08/27 00:27:40;;;;;;;1.90;1.80;;;25.30;99.90;;;;;;5045720;28;20296;-44
2022/08/27 00:30:11;;;;;;;1.95;1.75;;;25.20;99.90;;;;;;5048080;28;20202;-47
2022/08/27 00:32:39;;;;;;;3.17;1.95;;;25.30;99.90;;;;;;5049250;28;20626;-45
2022/08/27 00:35:07;;;;;;;2.20;2.10;;;25.20;99.90;;;;;;5047585;28;20197;-41
2022/08/27 00:37:35;;;;;;;1.88;1.77;;;25.20;99.90;;;;;;5048402;28;20229;-47
2022/08/27 00:40:03;;;;;;;2.08;1.90;;;25.20;99.90;;;;;;5049682;28;20221;-42
2022/08/27 00:42:32;;;;;;;1.70;1.60;;;25.20;99.90;;;;;;5049207;28;20214;-46
2022/08/27 00:44:59;;;;;;;1.80;1.70;;;25.20;99.90;;;;;;5049325;28;20197;-41
2022/08/27 00:47:31;;;;;;;3.35;2.25;;;25.10;99.90;;;;;;5047910;28;20297;-44
2022/08/27 00:50:02;;;;;;;2.20;2.10;;;25.10;99.90;;;;;;5048199;28;20186;-45
2022/08/27 00:52:33;;;;;;;2.05;1.95;;;25.10;99.90;;;;;;5046916;28;20194;-44
2022/08/27 00:55:04;;;;;;;1.98;1.88;;;25.10;99.90;;;;;;5048420;28;20364;-45
2022/08/27 00:57:35;;;;;;;2.92;2.10;;;25.00;99.90;;;;;;5047265;28;20566;-41
2022/08/27 01:00:03;;;;;;;2.00;1.90;;;25.10;99.90;;;;;;5050006;28;20724;-43
2022/08/27 01:02:30;;;;;;;2.33;2.13;;;25.10;99.90;;;;;;5047639;28;20280;-43
2022/08/27 01:05:01;;;;;;;2.05;1.95;;;25.00;99.90;;;;;;5051676;28;20752;-42
2022/08/27 01:07:31;;;;;;;2.97;2.40;;;24.90;99.90;;;;;;5047707;28;20194;-39
2022/08/27 01:10:01;;;;;;;2.47;2.20;;;24.90;99.90;;;;;;5048845;28;20182;-42
2022/08/27 01:12:30;;;;;;;3.45;2.30;;;24.90;99.90;;;;;;5047948;28;20190;-40
2022/08/27 01:14:59;;;;;;;2.95;2.17;;;24.90;99.90;;;;;;5049330;28;20225;-41
2022/08/27 01:17:27;;;;;;;2.30;2.10;;;24.90;99.90;;;;;;5046841;28;20190;-40
2022/08/27 01:19:57;;;;;;;1.95;1.85;;;24.80;99.90;;;;;;5048476;28;20653;-40
2022/08/27 01:22:34;;;;;;;2.33;2.13;;;24.80;99.90;;;;;;5051379;28;20314;-39
2022/08/27 01:25:07;;;;;;;2.03;1.92;;;24.80;99.90;;;;;;5048234;28;20671;-42
2022/08/27 01:27:35;;;;;;;2.00;1.90;;;24.80;99.90;;;;;;5048178;28;20297;-40
2022/08/27 01:30:03;;;;;;;2.22;2.08;;;24.80;99.90;;;;;;5045210;28;20197;-39
2022/08/27 01:32:33;;;;;;;2.45;2.20;;;24.70;99.90;;;;;;5046655;28;20719;-40
2022/08/27 01:35:01;;;;;;;3.92;2.33;;;24.70;99.90;;;;;;5045591;28;20283;-39
2022/08/27 01:37:29;;;;;;;2.33;2.13;;;24.70;99.90;;;;;;5046416;28;20221;-40
2022/08/27 01:39:57;;;;;;;2.28;2.10;;;24.70;99.90;;;;;;5047117;28;20596;-40
2022/08/27 01:42:29;;;;;;;2.35;2.15;;;24.70;99.90;;;;;;5047207;28;20213;-43
2022/08/27 01:44:58;;;;;;;2.42;2.20;;;24.60;99.90;;;;;;5047091;28;20585;-45
2022/08/27 01:47:28;;;;;;;2.33;2.17;;;24.60;99.90;;;;;;5048384;28;20542;-47
2022/08/27 01:49:55;;;;;;;2.00;1.90;;;24.60;99.90;;;;;;5046670;28;20233;-49
2022/08/27 01:52:27;;;;;;;2.30;1.85;;;24.70;99.90;;;;;;5050034;28;20186;-47
2022/08/27 01:54:54;;;;;;;2.08;1.98;;;24.60;99.90;;;;;;5044469;28;20268;-42
2022/08/27 01:57:22;;;;;;;2.83;2.45;;;24.60;99.90;;;;;;5048109;28;20251;-45
2022/08/27 01:59:50;;;;;;;4.85;2.40;;;24.60;99.90;;;;;;5046527;28;20674;-42
2022/08/27 02:02:18;;;;;;;1.73;1.63;;;24.60;99.90;;;;;;5046291;28;20239;-42
2022/08/27 02:04:45;;;;;;;2.83;2.05;;;24.60;99.90;;;;;;5045450;28;20626;-47
2022/08/27 02:07:12;;;;;;;2.03;1.80;;;24.60;99.90;;;;;;5047802;28;20198;-44
2022/08/27 02:09:39;;;;;;;2.10;2.00;;;24.60;99.90;;;;;;5044906;28;20221;-46
2022/08/27 02:12:07;;;;;;;3.15;1.80;;;24.60;99.90;;;;;;5045133;28;20721;-46
2022/08/27 02:14:34;;;;;;;2.05;1.80;;;24.50;99.90;;;;;;5050348;28;20189;-44
2022/08/27 02:17:03;;;;;;;2.10;1.88;;;24.50;99.90;;;;;;5051712;28;20563;-44
2022/08/27 02:19:30;;;;;;;1.88;1.77;;;24.50;99.90;;;;;;5048705;28;20202;-44
2022/08/27 02:21:59;;;;;;;2.13;2.03;;;24.50;99.90;;;;;;5051065;28;20217;-44
2022/08/27 02:24:26;;;;;;;2.10;2.00;;;24.50;99.90;;;;;;5050095;28;20314;-43
2022/08/27 02:26:54;;;;;;;1.60;1.50;;;24.40;99.90;;;;;;5050452;28;20301;-47
2022/08/27 02:29:22;;;;;;;1.95;1.75;;;24.40;99.90;;;;;;5049543;28;20198;-45
2022/08/27 02:31:49;;;;;;;1.80;1.70;;;24.40;99.90;;;;;;5047460;28;20255;-41
2022/08/27 02:34:18;;;;;;;2.35;1.75;;;24.30;99.90;;;;;;5049225;28;20190;-47
2022/08/27 02:36:45;;;;;;;1.60;1.50;;;24.40;99.90;;;;;;5049231;28;20202;-46
2022/08/27 02:39:12;;;;;;;4.10;1.65;;;24.30;99.90;;;;;;5050375;28;20212;-48
2022/08/27 02:41:39;;;;;;;1.50;1.40;;;24.30;99.90;;;;;;5051898;28;20205;-45
2022/08/27 02:44:07;;;;;;;1.70;1.60;;;24.30;99.90;;;;;;5050090;28;20198;-40
2022/08/27 02:46:33;;;;;;;1.90;1.80;;;24.30;99.90;;;;;;5050669;28;20225;-46
2022/08/27 02:49:00;;;;;;;1.67;1.58;;;24.30;99.90;;;;;;5047272;28;20290;-45
2022/08/27 02:51:29;;;;;;;1.75;1.65;;;24.30;99.90;;;;;;5052111;28;20646;-46
2022/08/27 02:53:56;;;;;;;1.83;1.73;;;24.40;99.90;;;;;;5050279;28;20214;-48
2022/08/27 02:56:23;;;;;;;2.10;1.88;;;24.40;99.90;;;;;;5051128;28;20293;-40
2022/08/27 02:58:50;;;;;;;2.38;1.70;;;24.40;99.90;;;;;;5048708;28;20194;-47
2022/08/27 03:01:17;;;;;;;2.60;2.40;;;24.30;99.90;;;;;;5049278;28;20202;-42
2022/08/27 03:03:44;;;;;;;3.03;2.10;;;24.30;99.90;;;;;;5047538;28;20194;-45
2022/08/27 03:06:11;;;;;;;2.38;2.17;;;24.30;99.90;;;;;;5051381;28;21193;-45
2022/08/27 03:08:40;;;;;;;2.00;1.90;;;24.20;99.90;;;;;;5049007;28;20281;-47
2022/08/27 03:11:07;;;;;;;2.22;2.05;;;24.20;99.90;;;;;;5050745;28;20665;-46
2022/08/27 03:13:37;;;;;;;2.28;1.92;;;24.20;99.90;;;;;;5050052;28;20194;-45
2022/08/27 03:16:04;;;;;;;2.63;2.20;;;24.20;99.90;;;;;;5050273;28;20193;-44
2022/08/27 03:18:31;;;;;;;2.30;2.00;;;24.10;99.90;;;;;;5046834;28;20198;-44
2022/08/27 03:21:00;;;;;;;2.25;2.10;;;24.10;99.90;;;;;;5047791;28;20193;-40
2022/08/27 03:23:31;;;;;;;3.40;2.28;;;24.10;99.90;;;;;;5048645;28;20237;-43
2022/08/27 03:26:02;;;;;;;2.30;2.20;;;24.10;99.90;;;;;;5050237;28;20193;-44
2022/08/27 03:28:31;;;;;;;2.10;2.00;;;24.10;99.90;;;;;;5048598;28;20226;-44
2022/08/27 03:31:02;;;;;;;2.10;2.00;;;24.10;99.90;;;;;;5047339;28;20222;-41
2022/08/27 03:33:31;;;;;;;1.90;1.80;;;24.10;99.90;;;;;;5062323;28;20190;-45
2022/08/27 03:35:59;;;;;;;2.15;1.92;;;24.10;99.90;;;;;;5049149;28;20572;-43
2022/08/27 03:38:27;;;;;;;5.45;2.08;;;24.10;99.90;;;;;;5048322;28;20194;-42
2022/08/27 03:40:54;;;;;;;2.00;1.90;;;24.10;99.90;;;;;;5049416;28;20674;-44
2022/08/27 03:43:25;;;;;;;2.17;2.08;;;24.00;99.90;;;;;;5047120;28;20246;-40
2022/08/27 03:45:52;;;;;;;2.22;2.00;;;24.00;99.90;;;;;;5049499;28;20277;-45
2022/08/27 03:48:20;;;;;;;2.70;2.42;;;24.00;99.90;;;;;;5047685;28;20290;-41
2022/08/27 03:50:49;;;;;;;4.85;2.38;;;24.00;99.90;;;;;;5049887;28;20205;-43
2022/08/27 03:53:19;;;;;;;2.40;2.30;;;24.00;99.90;;;;;;5048573;28;20197;-45
2022/08/27 03:55:46;;;;;;;3.97;2.28;;;23.90;99.90;;;;;;5046940;28;20265;-43
2022/08/27 03:58:13;;;;;;;2.70;2.50;;;23.90;99.90;;;;;;5044236;28;20248;-40
2022/08/27 04:00:42;;;;;;;2.40;2.20;;;23.90;99.90;;;;;;5047249;28;20229;-48
2022/08/27 04:03:12;;;;;;;2.20;2.10;;;23.90;99.90;;;;;;5044963;28;20297;-43
2022/08/27 04:05:41;;;;;;;2.08;1.98;;;23.80;99.90;;;;;;5049075;28;20198;-42
2022/08/27 04:08:08;;;;;;;2.22;2.13;;;23.80;99.90;;;;;;5047922;28;20194;-45
2022/08/27 04:10:38;;;;;;;2.30;2.00;;;23.80;99.90;;;;;;5049132;28;20531;-45
2022/08/27 04:13:05;;;;;;;1.88;1.77;;;23.80;99.90;;;;;;5048479;28;20201;-41
2022/08/27 04:15:32;;;;;;;2.30;2.20;;;23.80;99.90;;;;;;5051132;28;20228;-48
2022/08/27 04:18:01;;;;;;;2.42;2.20;;;23.80;99.90;;;;;;5048942;28;20182;-41
2022/08/27 04:20:28;;;;;;;2.10;2.00;;;23.80;99.90;;;;;;5051580;28;20198;-40
2022/08/27 04:22:55;;;;;;;2.33;2.13;;;23.80;99.90;;;;;;5049975;28;20345;-44
2022/08/27 04:25:22;;;;;;;2.10;2.00;;;23.80;99.90;;;;;;5050138;28;20218;-40
2022/08/27 04:27:49;;;;;;;2.10;1.85;;;23.80;99.90;;;;;;5046477;28;20232;-45
2022/08/27 04:30:18;;;;;;;2.13;2.03;;;23.80;99.90;;;;;;5046528;28;20248;-42
2022/08/27 04:32:45;;;;;;;2.05;1.95;;;23.80;99.90;;;;;;5049086;28;20198;-42
2022/08/27 04:35:13;;;;;;;2.42;2.22;;;23.80;99.90;;;;;;5045073;28;21572;-43
2022/08/27 04:37:40;;;;;;;2.00;1.90;;;23.80;99.90;;;;;;5050030;28;20223;-40
2022/08/27 04:40:08;;;;;;;2.63;2.03;;;23.80;99.90;;;;;;5050572;28;20708;-42
2022/08/27 04:42:35;;;;;;;2.35;2.25;;;23.80;99.90;;;;;;5048819;28;20622;-40
2022/08/27 04:45:03;;;;;;;2.40;2.20;;;23.80;99.90;;;;;;5046329;28;20329;-40
2022/08/27 04:47:30;;;;;;;2.42;2.05;;;23.80;99.90;;;;;;5047467;28;20626;-40
2022/08/27 04:49:57;;;;;;;1.90;1.80;;;23.80;99.90;;;;;;5047366;28;20216;-50
2022/08/27 04:52:26;;;;;;;3.75;2.67;;;23.90;99.90;;;;;;5049806;28;20653;-46
2022/08/27 04:54:54;;;;;;;2.50;2.30;;;23.90;99.90;;;;;;5048080;28;20296;-48
2022/08/27 04:57:21;;;;;;;5.22;2.47;;;23.90;99.90;;;;;;5044959;28;20198;-49
2022/08/27 04:59:48;;;;;;;2.58;2.38;;;23.90;99.90;;;;;;5045621;28;20284;-46
2022/08/27 05:02:15;;;;;;;2.47;2.28;;;23.90;99.90;;;;;;5045107;28;20206;-46
2022/08/27 05:04:43;;;;;;;3.88;2.85;;;23.90;99.90;;;;;;5048098;28;20214;-43
2022/08/27 05:07:10;;;;;;;2.95;2.75;;;23.90;99.90;;;;;;5051108;28;20191;-43
2022/08/27 05:09:39;;;;;;;4.05;3.47;;;23.80;99.90;;;;;;5045462;28;20190;-44
2022/08/27 05:12:06;;;;;;;9.43;4.47;;;23.90;99.90;;;;;;5045525;28;20308;-40
2022/08/27 05:14:33;;;;;;;4.68;4.03;;;23.90;99.90;;;;;;5049619;28;20221;-43
2022/08/27 05:17:02;;;;;;;3.28;2.95;;;23.90;99.90;;;;;;5047876;28;20205;-46
2022/08/27 05:19:29;;;;;;;3.00;2.80;;;23.90;99.90;;;;;;5043776;28;20197;-40
2022/08/27 05:21:56;;;;;;;3.85;3.03;;;23.90;99.90;;;;;;5048642;28;20221;-41
2022/08/27 05:24:23;;;;;;;2.70;2.50;;;23.90;99.90;;;;;;5046908;28;20236;-42
2022/08/27 05:26:53;;;;;;;2.22;2.13;;;23.90;99.90;;;;;;5048615;28;20302;-43
2022/08/27 05:29:21;;;;;;;3.47;3.17;;;23.90;99.90;;;;;;5046399;28;20194;-42
2022/08/27 05:31:48;;;;;;;3.05;2.85;;;24.00;99.90;;;;;;5043891;28;20292;-39
2022/08/27 05:34:16;;;;;;;2.63;2.50;;;24.00;99.90;;;;;;5045852;28;20216;-47
2022/08/27 05:36:43;;;;;;;2.67;2.47;;;24.00;99.90;;;;;;5047608;28;20194;-46
2022/08/27 05:39:10;;;;;;;2.60;2.40;;;24.00;99.90;;;;;;5045411;28;20626;-43
2022/08/27 05:41:38;;;;;;;5.80;3.55;;;24.00;99.90;;;;;;5046343;28;20259;-43
2022/08/27 05:44:09;;;;;;;4.03;3.60;;;24.00;99.90;;;;;;5047360;28;20252;-45
2022/08/27 05:46:38;;;;;;;3.22;3.03;;;24.00;99.90;;;;;;5047608;28;20243;-48
2022/08/27 05:49:05;;;;;;;4.68;2.90;;;24.00;99.90;;;;;;5044734;28;20193;-41
2022/08/27 05:51:34;;;;;;;4.30;3.83;;;24.00;99.90;;;;;;5047061;28;20201;-44
2022/08/27 05:54:04;;;;;;;5.82;3.83;;;24.10;99.90;;;;;;5046921;28;20190;-42
2022/08/27 05:56:34;;;;;;;7.43;3.60;;;24.10;99.90;;;;;;5046991;28;20286;-48
2022/08/27 06:01:49;;;;;;;6.65;3.88;;;24.10;99.90;;;;;;5044375;28;20600;-42
2022/08/27 06:04:17;;;;;;;7.70;4.15;;;24.10;99.90;;;;;;5043531;28;20241;-46
2022/08/27 06:06:45;;;;;;;6.72;4.13;;;24.10;99.90;;;;;;5046775;28;20202;-43
2022/08/27 06:09:14;;;;;;;8.23;4.07;;;24.10;99.90;;;;;;5046606;28;20690;-47
2022/08/27 06:11:41;;;;;;;4.97;3.20;;;24.10;99.90;;;;;;5049756;28;20672;-45
2022/08/27 06:14:09;;;;;;;4.70;3.30;;;24.10;99.90;;;;;;5049587;28;20273;-40
2022/08/27 06:16:37;;;;;;;5.57;3.85;;;24.20;99.90;;;;;;5049250;28;20221;-45
2022/08/27 06:19:06;;;;;;;7.20;4.13;;;24.30;99.90;;;;;;5045293;28;21460;-46
2022/08/27 06:21:34;;;;;;;4.18;3.70;;;24.20;99.90;;;;;;5047245;28;20445;-43
2022/08/27 06:24:01;;;;;;;3.15;2.85;;;24.30;99.90;;;;;;5046439;28;20237;-48
2022/08/27 06:26:29;;;;;;;6.38;3.85;;;24.30;99.90;;;;;;5045830;28;20305;-49
2022/08/27 06:28:56;;;;;;;4.72;3.20;;;24.40;99.90;;;;;;5047487;28;20285;-42
2022/08/27 06:31:26;;;;;;;3.00;2.70;;;24.40;99.90;;;;;;5047014;28;20688;-47
2022/08/27 06:33:57;;;;;;;4.57;3.33;;;24.50;99.90;;;;;;5042749;28;20190;-39
2022/08/27 06:36:26;;;;;;;7.70;4.40;;;24.50;99.90;;;;;;5045961;28;20190;-40
2022/08/27 06:38:55;;;;;;;4.65;4.00;;;24.60;99.90;;;;;;5046461;28;20277;-47
2022/08/27 06:41:25;;;;;;;5.43;4.93;;;24.50;99.90;;;;;;5044274;28;20256;-43
2022/08/27 06:43:53;;;;;;;8.75;5.05;;;24.60;99.90;;;;;;5046156;28;20608;-46
2022/08/27 06:46:22;;;;;;;7.43;5.10;;;24.60;99.90;;;;;;5046869;28;20507;-40
2022/08/27 06:48:51;;;;;;;7.22;5.28;;;24.60;99.90;;;;;;5045604;28;20228;-43
2022/08/27 06:51:20;;;;;;;14.27;5.15;;;24.70;99.90;;;;;;5048494;28;20237;-45
2022/08/27 06:53:49;;;;;;;11.13;5.13;;;24.70;99.90;;;;;;5045891;28;20768;-44
2022/08/27 06:56:17;;;;;;;5.80;4.80;;;24.70;99.90;;;;;;5049241;28;20198;-48
2022/08/27 06:58:45;;;;;;;5.10;4.28;;;24.80;99.90;;;;;;5045285;28;20201;-42
2022/08/27 07:01:13;;;;;;;4.43;3.55;;;24.80;99.90;;;;;;5049130;28;20264;-44
2022/08/27 07:03:42;;;;;;;3.90;3.47;;;24.90;99.90;;;;;;5050616;28;20279;-41
2022/08/27 07:06:10;;;;;;;7.35;4.13;;;25.00;99.90;;;;;;5048583;28;20193;-40
2022/08/27 07:08:38;;;;;;;4.38;4.00;;;25.00;99.90;;;;;;5045848;28;20248;-44
2022/08/27 07:11:08;;;;;;;4.22;3.83;;;25.10;99.90;;;;;;5050930;28;20562;-44
2022/08/27 07:13:36;;;;;;;3.92;3.63;;;25.20;99.90;;;;;;5051788;28;20240;-44
2022/08/27 07:16:05;;;;;;;5.50;4.78;;;25.20;99.90;;;;;;5048739;28;20198;-46
2022/08/27 07:18:32;;;;;;;4.72;3.92;;;25.40;99.90;;;;;;5049324;28;20189;-45
2022/08/27 07:21:00;;;;;;;5.85;5.00;;;25.40;99.90;;;;;;5052593;28;20240;-42
2022/08/27 07:23:27;;;;;;;6.00;5.28;;;25.50;99.90;;;;;;5050124;28;20786;-46
2022/08/27 07:25:54;;;;;;;8.15;4.97;;;25.50;99.90;;;;;;5052729;28;20557;-46
2022/08/27 07:28:23;;;;;;;6.15;5.13;;;25.60;99.90;;;;;;5050264;28;20194;-51
2022/08/27 07:30:50;;;;;;;5.65;4.88;;;25.60;99.90;;;;;;5049407;28;20218;-52
2022/08/27 07:33:17;;;;;;;6.03;5.43;;;25.70;99.90;;;;;;5048840;28;20255;-45
2022/08/27 07:35:47;;;;;;;5.22;4.72;;;25.70;99.90;;;;;;5052381;28;20360;-49
2022/08/27 07:38:15;;;;;;;4.65;4.20;;;25.80;99.90;;;;;;5047817;28;20192;-46
2022/08/27 07:40:42;;;;;;;4.20;3.90;;;25.90;99.90;;;;;;5049422;28;20194;-46
2022/08/27 07:45:56;;;;;;;3.50;3.30;;;26.00;99.90;;;;;;5049865;28;20725;-48
2022/08/27 07:48:24;;;;;;;7.22;4.72;;;26.10;99.90;;;;;;5049923;28;20276;-48
2022/08/27 07:50:51;;;;;;;5.13;4.03;;;26.20;99.90;;;;;;5050403;28;20283;-50
2022/08/27 07:53:19;;;;;;;5.63;4.00;;;26.30;99.90;;;;;;5049280;28;20273;-47
2022/08/27 07:55:46;;;;;;;3.75;3.45;;;26.30;99.90;;;;;;5048434;28;20202;-46
2022/08/27 07:58:14;;;;;;;3.20;3.00;;;26.40;99.90;;;;;;5048832;28;20210;-49
2022/08/27 08:00:42;;;;;;;3.30;3.10;;;26.50;99.90;;;;;;5050394;28;20198;-52
2022/08/27 08:03:12;;;;;;;3.20;3.00;;;26.60;99.90;;;;;;5047265;28;20238;-52
2022/08/27 08:05:42;;;;;;;3.60;3.30;;;26.70;99.90;;;;;;5045744;28;20202;-51
2022/08/27 08:08:10;;;;;;;6.03;3.53;;;26.70;99.90;;;;;;5048676;28;20592;-52
2022/08/27 08:10:37;;;;;;;3.67;3.20;;;26.80;99.90;;;;;;5050009;28;20205;-52
2022/08/27 08:13:05;;;;;;;3.90;3.60;;;26.90;99.90;;;;;;5046290;28;20231;-47
2022/08/27 08:15:32;;;;;;;5.38;4.22;;;27.00;99.90;;;;;;5048992;28;20194;-47
2022/08/27 08:18:00;;;;;;;7.70;4.88;;;27.10;99.90;;;;;;5049517;28;20213;-48
2022/08/27 08:20:28;;;;;;;7.13;5.85;;;27.10;99.90;;;;;;5045297;28;20247;-47
2022/08/27 08:22:55;;;;;;;8.20;4.93;;;27.20;99.90;;;;;;5047587;28;20202;-46
2022/08/27 08:25:23;;;;;;;5.72;5.20;;;27.20;99.80;;;;;;5046594;28;20202;-45
2022/08/27 08:27:50;;;;;;;5.10;4.70;;;27.30;99.80;;;;;;5048046;28;20626;-46
2022/08/27 08:30:17;;;;;;;5.50;4.75;;;27.40;99.80;;;;;;5049634;28;20244;-51
2022/08/27 08:32:44;;;;;;;3.72;3.40;;;27.40;99.50;;;;;;5049264;28;20198;-48
2022/08/27 08:35:11;;;;;;;3.20;3.00;;;27.50;99.60;;;;;;5048626;28;20190;-50
2022/08/27 08:37:41;;;;;;;3.42;3.22;;;27.50;99.60;;;;;;5048881;28;20197;-44
2022/08/27 08:40:10;;;;;;;2.60;2.50;;;27.70;99.70;;;;;;5044606;28;20229;-52
2022/08/27 08:42:41;;;;;;;2.70;2.60;;;27.70;99.60;;;;;;5030839;28;20275;-45
2022/08/27 08:45:11;;;;;;;3.58;2.55;;;27.80;99.50;;;;;;5034578;28;20220;-46
2022/08/27 08:47:44;;;;;;;2.95;2.75;;;27.80;99.30;;;;;;5046094;28;20269;-47
2022/08/27 08:50:18;;;;;;;3.95;3.65;;;28.00;99.20;;;;;;5044242;28;20222;-47
2022/08/27 08:52:54;;;;;;;4.90;3.78;;;28.00;98.90;;;;;;5041161;28;20259;-43
2022/08/27 08:55:33;;;;;;;3.53;3.33;;;28.10;98.70;;;;;;5043069;28;20999;-47
2022/08/27 08:58:10;;;;;;;2.90;2.78;;;28.10;98.70;;;;;;5037541;28;20233;-44
2022/08/27 09:00:39;;;;;;;5.47;4.10;;;28.20;98.60;;;;;;5047283;28;20267;-48
2022/08/27 09:03:07;;;;;;;7.35;4.50;;;28.30;98.50;;;;;;5045367;28;20312;-45
2022/08/27 09:05:40;;;;;;;5.30;4.03;;;28.30;98.30;;;;;;5052286;28;20209;-44
2022/08/27 09:08:16;;;;;;;4.38;4.07;;;28.40;98.20;;;;;;5046605;28;20252;-47
2022/08/27 09:10:48;;;;;;;4.28;3.90;;;28.40;98.20;;;;;;5047748;28;20702;-49
2022/08/27 09:13:22;;;;;;;4.55;3.55;;;28.50;98.00;;;;;;5046456;28;20209;-48
2022/08/27 09:15:51;;;;;;;3.47;3.13;;;28.50;97.70;;;;;;5047395;28;20255;-47
2022/08/27 09:18:18;;;;;;;6.85;3.95;;;28.70;97.50;;;;;;5048820;28;20723;-48
2022/08/27 09:20:48;;;;;;;7.78;5.13;;;28.80;97.10;;;;;;5046590;28;20305;-44
2022/08/27 09:23:24;;;;;;;5.13;4.53;;;28.80;96.60;;;;;;5046649;28;20241;-43
2022/08/27 09:25:51;;;;;;;4.35;4.05;;;28.80;96.70;;;;;;5050456;28;20196;-45
2022/08/27 09:31:09;;;;;;;4.60;3.83;;;29.00;96.40;;;;;;5047402;28;20205;-47
2022/08/27 09:33:36;;;;;;;4.05;3.70;;;29.00;96.40;;;;;;5043232;28;20198;-51
2022/08/27 09:36:07;;;;;;;4.93;4.50;;;29.10;96.70;;;;;;5046997;28;20233;-48
2022/08/27 09:38:36;;;;;;;4.68;4.28;;;29.10;96.00;;;;;;5048291;28;20727;-45
2022/08/27 09:41:07;;;;;;;6.38;4.85;;;29.20;96.00;;;;;;5047114;28;20209;-49
2022/08/27 09:43:35;;;;;;;6.70;5.05;;;29.30;95.30;;;;;;5043284;28;20209;-44
2022/08/27 09:46:07;;;;;;;5.38;4.15;;;29.30;94.20;;;;;;5047700;28;20194;-45
2022/08/27 09:48:36;;;;;;;4.50;4.10;;;29.30;94.00;;;;;;5046907;28;20721;-50
2022/08/27 09:51:09;;;;;;;3.67;3.45;;;29.40;93.50;;;;;;5046673;28;20218;-47
2022/08/27 09:53:45;;;;;;;5.20;3.33;;;29.50;93.60;;;;;;5047346;28;20236;-51
2022/08/27 09:56:24;;;;;;;4.82;4.38;;;29.50;93.00;;;;;;5047927;28;20186;-50
2022/08/27 09:58:54;;;;;;;5.10;3.97;;;29.60;92.60;;;;;;5042862;28;20221;-46
2022/08/27 10:01:24;;;;;;;5.13;4.70;;;29.70;91.90;;;;;;5048295;28;20239;-49
2022/08/27 10:04:02;;;;;;;4.38;4.00;;;29.80;91.00;;;;;;5049690;28;20213;-48
2022/08/27 10:06:32;;;;;;;4.63;4.20;;;29.80;91.60;;;;;;5049328;28;20284;-51
2022/08/27 10:09:06;;;;;;;4.55;4.25;;;29.80;91.70;;;;;;5043914;28;20222;-44
2022/08/27 10:11:40;;;;;;;7.28;4.90;;;29.80;91.40;;;;;;5047772;28;20504;-48
2022/08/27 10:14:13;;;;;;;5.85;5.18;;;29.80;91.90;;;;;;5042186;28;20309;-46
2022/08/27 10:16:51;;;;;;;6.80;4.88;;;29.80;92.50;;;;;;5046865;28;20205;-49
2022/08/27 10:19:32;;;;;;;4.70;4.30;;;29.80;92.80;;;;;;5047704;28;20271;-45
2022/08/27 10:22:08;;;;;;;5.30;4.10;;;29.80;92.90;;;;;;5046248;28;20217;-47
2022/08/27 10:24:48;;;;;;;5.03;4.55;;;29.80;93.10;;;;;;5044878;28;20675;-44
2022/08/27 10:27:27;;;;;;;7.70;4.70;;;30.00;93.60;;;;;;5043957;28;20267;-46
2022/08/27 10:30:02;;;;;;;4.85;4.35;;;30.00;93.90;;;;;;5041216;28;20455;-50
2022/08/27 10:32:44;;;;;;;5.00;4.60;;;30.00;94.10;;;;;;5044433;28;20198;-46
2022/08/27 10:35:16;;;;;;;4.72;4.32;;;30.00;94.40;;;;;;5049520;28;20226;-48
2022/08/27 10:37:52;;;;;;;4.15;3.75;;;30.00;94.60;;;;;;5051466;28;20733;-49
2022/08/27 10:40:27;;;;;;;4.10;3.75;;;30.10;94.80;;;;;;5049898;28;20206;-51
2022/08/27 10:43:07;;;;;;;4.18;3.85;;;30.20;94.90;;;;;;5049642;28;20575;-47
2022/08/27 10:45:44;;;;;;;4.38;4.07;;;30.30;94.90;;;;;;5051141;28;20201;-52
2022/08/27 10:48:23;;;;;;;6.75;4.70;;;30.30;94.90;;;;;;5049487;28;20615;-45
2022/08/27 10:50:56;;;;;;;4.97;4.10;;;30.30;95.00;;;;;;5052424;28;20197;-52
2022/08/27 10:53:30;;;;;;;4.72;4.32;;;30.20;95.10;;;;;;5048861;28;20684;-47
2022/08/27 10:56:10;;;;;;;4.90;4.50;;;30.20;95.20;;;;;;5050797;28;20209;-49
2022/08/27 10:58:48;;;;;;;4.57;4.22;;;30.20;95.20;;;;;;5048356;28;20239;-50
2022/08/27 11:01:21;;;;;;;4.13;3.70;;;30.30;95.30;;;;;;5049512;28;20194;-51
2022/08/27 11:03:53;;;;;;;3.35;3.15;;;30.30;95.20;;;;;;5048919;28;20197;-49
2022/08/27 11:06:27;;;;;;;3.83;3.50;;;30.50;95.30;;;;;;5048399;28;20213;-51
2022/08/27 11:09:01;;;;;;;3.90;3.60;;;30.60;95.20;;;;;;5051666;28;20555;-50
2022/08/27 11:11:37;;;;;;;3.33;3.13;;;30.60;95.10;;;;;;5049656;28;20186;-52
2022/08/27 11:14:08;;;;;;;4.00;3.70;;;30.70;95.40;;;;;;5048156;28;20561;-49
2022/08/27 11:16:41;;;;;;;4.75;4.22;;;30.70;94.90;;;;;;5050023;28;20186;-50
2022/08/27 11:19:17;;;;;;;4.03;3.80;;;30.70;94.90;;;;;;5058977;28;20884;-52
2022/08/27 11:21:51;;;;;;;5.30;4.80;;;30.70;94.90;;;;;;5052107;28;20584;-47
2022/08/27 11:24:37;;;;;;;4.60;4.22;;;30.60;94.80;;;;;;5051555;28;20225;-51
2022/08/27 11:27:08;;;;;;;4.93;4.53;;;30.60;94.90;;;;;;5049718;28;20194;-53
2022/08/27 11:29:40;;;;;;;5.03;4.50;;;30.60;94.80;;;;;;5047064;28;20225;-46
2022/08/27 11:32:16;;;;;;;4.35;4.05;;;30.60;94.70;;;;;;5050093;28;20249;-51
2022/08/27 11:34:49;;;;;;;4.32;4.03;;;30.60;94.60;;;;;;5048156;28;20194;-52
2022/08/27 11:37:44;;;;;;;4.10;3.75;;;30.60;94.60;;;;;;5042424;28;20190;-51
2022/08/27 11:40:34;;;;;;;4.13;3.72;;;30.60;94.40;;;;;;5051422;28;20190;-48
2022/08/27 11:43:05;;;;;;;5.97;4.70;;;30.70;94.30;;;;;;5048388;28;20729;-48
2022/08/27 11:45:37;;;;;;;5.15;4.75;;;30.60;94.10;;;;;;5050587;28;20601;-44
2022/08/27 11:48:16;;;;;;;4.18;3.88;;;30.60;94.00;;;;;;5048826;28;20287;-46
2022/08/27 11:50:54;;;;;;;4.13;3.83;;;30.60;93.90;;;;;;5050663;28;20281;-49
2022/08/27 11:53:26;;;;;;;4.97;4.18;;;30.60;93.80;;;;;;5046800;28;20569;-43
2022/08/27 11:55:53;;;;;;;4.88;4.43;;;30.70;93.60;;;;;;5048149;28;20201;-43
2022/08/27 11:58:28;;;;;;;3.97;3.70;;;30.70;93.60;;;;;;5047990;28;20309;-43
2022/08/27 12:00:55;;;;;;;4.53;4.20;;;30.70;93.50;;;;;;5047715;28;20193;-47
2022/08/27 12:03:30;;;;;;;4.40;4.10;;;30.70;93.30;;;;;;5049345;28;20655;-46
2022/08/27 12:06:19;;;;;;;4.45;4.10;;;30.60;93.10;;;;;;5046998;28;20205;-43
2022/08/27 12:08:46;;;;;;;4.63;4.25;;;30.60;93.10;;;;;;5050049;28;20244;-49
2022/08/27 12:11:32;;;;;;;6.00;4.53;;;30.70;93.00;;;;;;5049659;28;20658;-45
2022/08/27 12:14:11;;;;;;;4.53;4.13;;;30.70;92.80;;;;;;5049755;28;20185;-44
2022/08/27 12:16:48;;;;;;;4.57;4.28;;;30.70;92.60;;;;;;5048145;28;20276;-46
2022/08/27 12:19:32;;;;;;;4.55;4.15;;;30.70;92.30;;;;;;5048777;28;20284;-50
2022/08/27 12:22:15;;;;;;;6.03;4.45;;;30.70;91.90;;;;;;5049128;28;20190;-48
2022/08/27 12:24:49;;;;;;;6.20;5.00;;;30.70;91.40;;;;;;5046549;28;20257;-45
2022/08/27 12:27:33;;;;;;;5.15;4.75;;;30.70;91.10;;;;;;5049461;28;20192;-50
2022/08/27 12:30:19;;;;;;;4.45;4.13;;;30.70;91.00;;;;;;5048920;28;20743;-45
2022/08/27 12:32:51;;;;;;;4.38;3.97;;;30.70;90.90;;;;;;5049247;28;20205;-45
2022/08/27 12:35:22;;;;;;;4.47;4.00;;;30.70;90.80;;;;;;5050860;28;20192;-45
2022/08/27 12:37:53;;;;;;;4.40;4.05;;;30.70;90.90;;;;;;5048607;28;20201;-45
2022/08/27 12:40:28;;;;;;;4.60;4.20;;;30.70;91.00;;;;;;5049631;28;20358;-46
2022/08/27 12:43:10;;;;;;;5.88;3.90;;;30.70;91.10;;;;;;5047321;28;20273;-44
2022/08/27 12:45:46;;;;;;;3.85;3.60;;;30.70;91.30;;;;;;5047865;28;20201;-46
2022/08/27 12:48:13;;;;;;;4.85;4.53;;;30.80;91.50;;;;;;5048001;28;20285;-46
2022/08/27 12:50:41;;;;;;;3.70;3.50;;;30.70;91.60;;;;;;5048440;28;20263;-50
2022/08/27 12:53:33;;;;;;;4.20;3.88;;;30.70;91.80;;;;;;5047945;28;20200;-48
2022/08/27 12:56:11;;;;;;;4.00;3.70;;;30.70;92.10;;;;;;5049016;28;20302;-44
2022/08/27 12:58:49;;;;;;;4.47;4.15;;;30.80;92.20;;;;;;5047384;28;20296;-47
2022/08/27 13:01:41;;;;;;;6.72;4.30;;;30.70;92.40;;;;;;5049327;28;20198;-43
2022/08/27 13:04:20;;;;;;;5.18;4.68;;;30.70;92.60;;;;;;5048337;28;20200;-46
2022/08/27 13:06:47;;;;;;;4.40;4.10;;;30.70;92.80;;;;;;5049333;28;20188;-43
2022/08/27 13:09:14;;;;;;;5.35;4.95;;;30.70;93.20;;;;;;5048591;28;20661;-46
2022/08/27 13:11:46;;;;;;;4.10;3.80;;;30.70;93.20;;;;;;5049190;28;20233;-47